Time;durP1;ratioP1;P1;durP2;ratioP2;P2;SDS_P1;SDS_P2;PMS_P1;PMS_P2;Temp;Humidity;BMP_temperature;BMP_pressure;BME280_temperature;BME280_humidity;BME280_pressure;Samples;Min_cycle;Max_cycle;Signal;HPM_P1;HPM_P2
2023/07/01 00:02:00;;;;;;;7.43;3.22;;;;;;;-144.73;100.00;54407.69;5030397;28;20078;-72
2023/07/01 00:04:25;;;;;;;5.88;2.88;;;;;;;-144.73;100.00;54358.44;5013158;28;20018;-72
2023/07/01 00:06:51;;;;;;;5.30;2.53;;;;;;;-144.73;99.70;54350.22;5013795;28;20021;-71
2023/07/01 00:09:16;;;;;;;7.20;2.58;;;;;;;-144.73;99.91;54360.50;5012732;28;20021;-71
2023/07/01 00:11:41;;;;;;;7.47;3.10;;;;;;;-144.73;99.53;54325.59;5009121;28;20046;-71
2023/07/01 00:14:07;;;;;;;7.72;2.70;;;;;;;-144.73;100.00;54354.34;5012659;28;20091;-72
2023/07/01 00:16:32;;;;;;;8.23;2.90;;;;;;;-144.73;100.00;54331.75;5011722;28;20060;-71
2023/07/01 00:18:58;;;;;;;8.23;3.10;;;;;;;-144.73;100.00;54342.03;5012137;28;20061;-72
2023/07/01 00:21:23;;;;;;;5.72;3.05;;;;;;;-144.73;100.00;54346.13;5026015;28;20180;-71
2023/07/01 00:23:51;;;;;;;5.68;2.63;;;;;;;-144.73;100.00;54346.13;5030130;28;20414;-73
2023/07/01 00:26:16;;;;;;;8.73;3.22;;;;;;;-144.73;98.38;54333.81;5013597;28;20038;-73
2023/07/01 00:28:42;;;;;;;3.95;2.10;;;;;;;-144.73;100.00;54387.19;5020426;28;20022;-72
2023/07/01 00:31:07;;;;;;;13.48;2.70;;;;;;;-144.73;96.23;54366.66;5021161;28;20029;-71
2023/07/01 00:33:32;;;;;;;10.18;2.20;;;;;;;-144.73;97.22;54354.34;5009178;28;20033;-71
2023/07/01 00:35:58;;;;;;;7.53;2.60;;;;;;;-144.73;97.95;54321.50;5010774;28;20040;-70
2023/07/01 00:38:23;;;;;;;7.22;2.80;;;;;;;-144.73;94.33;54342.03;5012686;28;20030;-71
2023/07/01 00:40:49;;;;;;;6.75;2.28;;;;;;;-144.73;97.71;54358.44;5009470;28;20026;-70
2023/07/01 00:43:14;;;;;;;6.10;2.53;;;;;;;-144.73;94.89;54362.53;5013017;28;20040;-71
2023/07/01 00:45:39;;;;;;;8.13;2.80;;;;;;;-144.73;97.32;54352.28;5011791;28;20030;-71
2023/07/01 00:48:05;;;;;;;6.28;2.45;;;;;;;-144.73;96.29;54370.75;5011423;28;20030;-72
2023/07/01 00:50:31;;;;;;;8.93;2.30;;;;;;;-144.73;92.84;54321.50;5026969;28;20048;-70
2023/07/01 00:52:56;;;;;;;8.40;2.35;;;;;;;-144.73;94.71;54331.75;5012068;28;20030;-70
2023/07/01 00:55:22;;;;;;;8.43;2.20;;;;;;;-144.73;97.91;54387.19;5028331;28;20044;-73
2023/07/01 00:57:47;;;;;;;3.60;2.40;;;;;;;-144.73;97.93;54389.22;5009759;28;20014;-71
2023/07/01 01:00:13;;;;;;;15.63;3.88;;;;;;;-144.73;97.47;54374.84;5011958;28;20068;-72
2023/07/01 01:02:55;;;;;;;6.32;3.40;;;;;;;-144.73;99.02;54331.75;5012529;28;20025;-72
2023/07/01 01:05:45;;;;;;;6.80;2.75;;;;;;;-144.73;96.32;54329.72;5011010;28;20036;-71
2023/07/01 01:08:36;;;;;;;17.42;2.40;;;;;;;-144.73;97.62;54362.53;5013277;28;20048;-73
2023/07/01 01:11:03;;;;;;;11.70;2.20;;;;;;;-144.73;96.60;54407.69;5024096;28;20045;-72
2023/07/01 01:13:30;;;;;;;6.28;2.42;;;;;;;-144.73;99.39;54337.91;5012291;28;20025;-72
2023/07/01 01:15:58;;;;;;;7.20;2.58;;;;;;;-144.73;96.56;54362.53;5029063;28;20033;-72
2023/07/01 01:18:28;;;;;;;3.85;2.22;;;;;;;-144.73;95.07;54352.28;5010869;28;20018;-71
2023/07/01 01:20:56;;;;;;;11.63;2.17;;;;;;;-144.73;94.51;54383.06;5011684;28;20026;-71
2023/07/01 01:23:34;;;;;;;6.75;2.67;;;;;;;-144.73;96.27;54333.81;5029271;28;20025;-72
2023/07/01 01:26:34;;;;;;;7.20;2.55;;;;;;;-144.73;98.60;54366.66;5012017;28;20051;-72
2023/07/01 01:29:01;;;;;;;8.68;2.63;;;;;;;-144.73;96.02;54350.22;5018892;28;20069;-72
2023/07/01 01:31:28;;;;;;;4.90;2.03;;;;;;;-144.73;98.08;54387.19;5009451;28;20025;-72
2023/07/01 01:33:54;;;;;;;9.60;2.88;;;;;;;-144.73;96.54;54342.03;5009241;28;20040;-72
2023/07/01 01:36:41;;;;;;;10.45;2.30;;;;;;;-144.73;97.07;54329.72;5027750;28;20030;-71
2023/07/01 01:39:10;;;;;;;7.30;2.47;;;;;;;-144.73;100.00;54376.91;5028837;28;20036;-71
2023/07/01 01:41:48;;;;;;;7.35;2.67;;;;;;;-144.73;100.00;54346.13;5028304;28;20118;-71
2023/07/01 01:44:19;;;;;;;7.68;2.72;;;;;;;-144.73;100.00;54387.19;5028758;28;20096;-72
2023/07/01 01:46:45;;;;;;;8.25;2.10;;;;;;;-144.73;100.00;54358.44;5007490;28;20044;-73
2023/07/01 01:49:12;;;;;;;5.63;3.50;;;;;;;-144.73;99.17;54370.75;4996437;28;20029;-71
2023/07/01 01:51:40;;;;;;;7.20;2.75;;;;;;;-144.73;100.00;54321.50;5002397;28;20037;-71
2023/07/01 01:54:08;;;;;;;10.25;2.85;;;;;;;-144.73;100.00;54362.53;5019018;28;20064;-73
2023/07/01 01:56:35;;;;;;;5.32;2.22;;;;;;;-144.73;98.96;54350.22;5021649;28;20080;-72
2023/07/01 01:59:02;;;;;;;7.65;2.33;;;;;;;-144.73;99.29;54366.66;5025725;28;20025;-71
2023/07/01 02:01:28;;;;;;;7.40;2.50;;;;;;;-144.73;99.04;54364.59;5004617;28;20045;-72
2023/07/01 02:03:53;;;;;;;6.60;2.35;;;;;;;-144.73;100.00;54352.28;5027261;28;20025;-72
2023/07/01 02:06:19;;;;;;;6.00;2.22;;;;;;;-144.73;100.00;54346.13;5011987;28;20108;-71
2023/07/01 02:08:44;;;;;;;6.50;2.22;;;;;;;-144.73;99.88;54362.53;5010838;28;20112;-71
2023/07/01 02:11:09;;;;;;;8.88;3.30;;;;;;;-144.73;99.18;54387.19;5020170;28;20380;-71
2023/07/01 02:13:37;;;;;;;5.90;2.00;;;;;;;-144.73;98.91;54319.44;5025506;28;20037;-72
2023/07/01 02:16:02;;;;;;;6.47;2.78;;;;;;;-144.73;98.71;54362.53;5001437;28;20057;-73
2023/07/01 02:18:28;;;;;;;12.02;3.22;;;;;;;-144.73;99.17;54321.50;5010386;28;20101;-72
2023/07/01 02:20:53;;;;;;;11.43;2.95;;;;;;;-144.73;100.00;54350.22;5010965;28;20120;-70
2023/07/01 02:23:19;;;;;;;4.28;2.15;;;;;;;-144.73;97.85;54387.19;5002068;28;20029;-71
2023/07/01 02:25:45;;;;;;;7.90;2.40;;;;;;;-144.73;94.58;54391.28;5022536;28;20060;-72
2023/07/01 02:28:10;;;;;;;9.50;2.60;;;;;;;-144.73;96.23;54346.13;5028017;28;20474;-71
2023/07/01 02:30:36;;;;;;;5.32;2.40;;;;;;;-144.73;95.32;54329.72;5027806;28;20171;-71
2023/07/01 02:33:02;;;;;;;5.82;2.40;;;;;;;-144.73;96.24;54350.22;5007206;28;20022;-72
2023/07/01 02:35:27;;;;;;;7.03;2.63;;;;;;;-144.73;94.66;54356.38;5026568;28;20048;-72
2023/07/01 02:37:53;;;;;;;7.13;2.35;;;;;;;-144.73;94.91;54309.19;5010963;28;20018;-71
2023/07/01 02:40:18;;;;;;;5.32;2.08;;;;;;;-144.73;96.40;54366.66;5006991;28;20256;-72
2023/07/01 02:42:43;;;;;;;4.32;2.05;;;;;;;-144.73;94.77;54374.84;5027848;28;20021;-73
2023/07/01 02:45:09;;;;;;;7.40;2.60;;;;;;;-144.73;96.16;54366.66;5004926;28;20033;-72
2023/07/01 02:47:34;;;;;;;10.55;2.35;;;;;;;-144.73;96.23;54309.19;5010190;28;20017;-71
2023/07/01 02:50:00;;;;;;;7.32;2.53;;;;;;;-144.73;96.37;54358.44;5024884;28;20030;-71
2023/07/01 02:52:26;;;;;;;8.27;2.47;;;;;;;-144.73;95.62;54337.91;5007568;28;20076;-74
2023/07/01 02:54:51;;;;;;;9.20;2.55;;;;;;;-144.73;95.76;54378.97;5027559;28;20034;-72
2023/07/01 02:57:16;;;;;;;13.43;2.80;;;;;;;-144.73;94.03;54329.72;5026939;28;20021;-72
2023/07/01 02:59:42;;;;;;;11.10;2.58;;;;;;;-144.73;93.21;54337.91;5006066;28;20088;-72
2023/07/01 03:02:08;;;;;;;7.03;2.20;;;;;;;-144.73;92.08;54358.44;5007722;28;20021;-70
2023/07/01 03:04:34;;;;;;;8.45;2.40;;;;;;;-144.73;92.22;54356.38;5027904;28;20029;-71
2023/07/01 03:06:59;;;;;;;8.00;2.53;;;;;;;-144.73;92.76;54350.22;5028817;28;20486;-72
2023/07/01 03:09:25;;;;;;;4.60;2.20;;;;;;;-144.73;92.72;54378.97;5009874;28;20037;-73
2023/07/01 03:11:52;;;;;;;6.45;2.50;;;;;;;-144.73;91.08;54325.59;5028017;28;20017;-71
2023/07/01 03:14:17;;;;;;;6.10;1.80;;;;;;;-144.73;86.46;54325.59;5028210;28;20060;-72
2023/07/01 03:16:43;;;;;;;7.70;2.40;;;;;;;-144.73;87.33;54354.34;5017391;28;20030;-71
2023/07/01 03:19:08;;;;;;;6.25;2.00;;;;;;;-144.73;88.66;54342.03;5014926;28;20036;-71
2023/07/01 03:21:35;;;;;;;12.93;2.45;;;;;;;-144.73;87.38;54354.34;5042594;28;20041;-72
2023/07/01 03:24:01;;;;;;;7.05;2.22;;;;;;;-144.73;87.06;54362.53;5014721;28;20033;-72
2023/07/01 03:26:27;;;;;;;9.40;2.92;;;;;;;-144.73;85.99;54313.28;5009398;28;20029;-72
2023/07/01 03:28:53;;;;;;;5.85;2.30;;;;;;;-144.73;85.02;54348.19;5028558;28;20051;-72
2023/07/01 03:31:22;;;;;;;6.70;2.40;;;;;;;-144.73;83.91;54344.06;5027079;28;20486;-71
2023/07/01 03:33:48;;;;;;;9.02;2.67;;;;;;;-144.73;84.92;54346.13;5026898;28;20104;-73
2023/07/01 03:36:14;;;;;;;7.78;2.72;;;;;;;-144.73;82.10;54333.81;5024939;28;20044;-71
2023/07/01 03:38:40;;;;;;;4.80;2.15;;;;;;;-144.73;84.66;54383.06;5026629;28;20033;-72
2023/07/01 03:41:07;;;;;;;9.95;2.30;;;;;;;-144.73;81.76;54309.19;5012161;28;20060;-71
2023/07/01 03:43:33;;;;;;;8.50;2.80;;;;;;;-144.73;81.38;54387.19;5029462;28;20021;-71
2023/07/01 03:45:58;;;;;;;9.27;2.90;;;;;;;-144.73;82.66;54354.34;5010634;28;20039;-71
2023/07/01 03:48:24;;;;;;;5.88;2.88;;;;;;;-144.73;82.37;54374.84;5019634;28;20043;-71
2023/07/01 03:50:49;;;;;;;6.32;2.50;;;;;;;-144.73;83.36;54352.28;5006322;28;20080;-73
2023/07/01 03:53:15;;;;;;;4.88;2.05;;;;;;;-144.73;81.28;54348.19;5024265;28;20026;-73
2023/07/01 03:55:40;;;;;;;8.30;2.50;;;;;;;-144.73;80.50;54354.34;5025690;28;20034;-71
2023/07/01 03:58:05;;;;;;;5.03;2.50;;;;;;;-144.73;81.11;54358.44;5007465;28;20390;-74
2023/07/01 04:00:31;;;;;;;5.43;2.63;;;;;;;-144.73;80.98;54335.88;5009864;28;20025;-72
2023/07/01 04:03:05;;;;;;;7.22;2.17;;;;;;;-144.73;79.44;54366.66;5011969;28;20382;-72
2023/07/01 04:05:34;;;;;;;4.57;2.42;;;;;;;-144.73;79.53;54383.06;5029317;28;20025;-71
2023/07/01 04:08:00;;;;;;;6.13;2.22;;;;;;;-144.73;81.40;54321.50;5030358;28;20021;-71
2023/07/01 04:10:25;;;;;;;5.13;2.25;;;;;;;-144.73;79.77;54350.22;5028922;28;20030;-71
2023/07/01 04:12:51;;;;;;;8.35;2.30;;;;;;;-144.73;80.06;54378.97;5009630;28;20033;-72
2023/07/01 04:15:16;;;;;;;7.10;2.55;;;;;;;-144.73;78.80;54342.03;5011465;28;20540;-72
2023/07/01 04:17:44;;;;;;;9.38;2.88;;;;;;;-144.73;80.88;54395.38;5013830;28;20013;-73
2023/07/01 04:20:13;;;;;;;11.07;3.30;;;;;;;-144.73;79.54;54342.03;5029121;28;20111;-70
2023/07/01 04:22:39;;;;;;;7.57;2.13;;;;;;;-144.73;80.24;54362.53;5030757;28;20029;-71
2023/07/01 04:25:04;;;;;;;7.82;2.40;;;;;;;-144.73;79.84;54309.19;5029785;28;20038;-72
2023/07/01 04:27:31;;;;;;;5.82;1.92;;;;;;;-144.73;81.14;54305.06;5029286;28;20469;-71
2023/07/01 04:29:56;;;;;;;6.07;2.80;;;;;;;-144.73;82.29;54325.59;5028747;28;20040;-71
2023/07/01 04:32:21;;;;;;;7.07;2.53;;;;;;;-144.73;79.48;54346.13;5012491;28;20425;-72
2023/07/01 04:34:48;;;;;;;4.82;2.50;;;;;;;-144.73;80.50;54370.75;5018483;28;20059;-71
2023/07/01 04:37:13;;;;;;;11.82;2.50;;;;;;;-144.73;79.20;54333.81;5016158;28;20075;-73
2023/07/01 04:39:39;;;;;;;5.35;2.78;;;;;;;-144.73;80.16;54333.81;5023819;28;20033;-71
2023/07/01 04:42:04;;;;;;;5.03;2.55;;;;;;;-144.73;80.70;54366.66;5007242;28;20026;-71
2023/07/01 04:44:30;;;;;;;8.82;2.53;;;;;;;-144.73;79.70;54354.34;5011706;28;20084;-71
2023/07/01 04:46:55;;;;;;;13.25;2.97;;;;;;;-144.73;80.67;54362.53;5019357;28;20021;-71
2023/07/01 04:49:21;;;;;;;13.95;2.55;;;;;;;-144.73;81.36;54366.66;5002952;28;20033;-72
2023/07/01 04:51:46;;;;;;;6.80;3.40;;;;;;;-144.73;82.56;54329.72;5006003;28;20083;-71
2023/07/01 04:54:11;;;;;;;6.40;2.55;;;;;;;-144.73;80.86;54366.66;5012826;28;20076;-71
2023/07/01 04:56:37;;;;;;;6.95;2.58;;;;;;;-144.73;82.55;54337.91;5009771;28;20026;-70
2023/07/01 04:59:02;;;;;;;4.22;2.53;;;;;;;-144.73;83.17;54362.53;5028861;28;20025;-71
2023/07/01 05:01:28;;;;;;;10.70;2.80;;;;;;;-144.73;84.90;54325.59;5029139;28;20052;-71
2023/07/01 05:03:53;;;;;;;11.88;2.80;;;;;;;-144.73;84.89;54342.03;5011607;28;20028;-70
2023/07/01 05:06:18;;;;;;;10.32;2.88;;;;;;;-144.73;81.66;54374.84;5025836;28;20045;-72
2023/07/01 05:08:44;;;;;;;6.50;2.47;;;;;;;-144.73;82.25;54321.50;5029749;28;20118;-71
2023/07/01 05:11:10;;;;;;;10.82;3.33;;;;;;;-144.73;82.10;54378.97;5011887;28;20041;-71
2023/07/01 05:13:35;;;;;;;7.07;2.58;;;;;;;-144.73;83.43;54321.50;5028697;28;20029;-70
2023/07/01 05:16:01;;;;;;;14.15;3.80;;;;;;;-144.73;82.22;54342.03;5029153;28;20061;-71
2023/07/01 05:18:26;;;;;;;9.68;2.40;;;;;;;-144.73;83.99;54321.50;5010001;28;20034;-70
2023/07/01 05:20:52;;;;;;;7.35;2.80;;;;;;;-144.73;83.95;54350.22;5012671;28;20022;-72
2023/07/01 05:23:17;;;;;;;8.45;2.65;;;;;;;-144.73;83.19;54352.28;5029053;28;20029;-72
2023/07/01 05:25:42;;;;;;;9.32;2.65;;;;;;;-144.73;86.15;54366.66;5028911;28;20030;-72
2023/07/01 05:28:08;;;;;;;6.25;2.72;;;;;;;-144.73;84.52;54337.91;5011913;28;20071;-72
2023/07/01 05:30:33;;;;;;;17.90;3.53;;;;;;;-144.73;84.55;54374.84;5028989;28;20084;-72
2023/07/01 05:32:59;;;;;;;7.20;3.30;;;;;;;-144.73;85.31;54337.91;5028796;28;20071;-72
2023/07/01 05:35:24;;;;;;;10.50;2.67;;;;;;;-144.73;87.56;54383.06;5027743;28;20065;-72
2023/07/01 05:37:49;;;;;;;8.73;2.65;;;;;;;-144.73;91.68;54362.53;5028081;28;20382;-72
2023/07/01 05:40:15;;;;;;;11.75;3.28;;;;;;;-144.73;96.44;54374.84;5026239;28;20034;-71
2023/07/01 05:42:40;;;;;;;5.53;3.25;;;;;;;-144.73;96.83;54407.69;5011393;28;20037;-71
2023/07/01 05:45:06;;;;;;;15.38;4.15;;;;;;;-144.73;100.00;54342.03;5027456;28;20049;-71
2023/07/01 05:47:32;;;;;;;10.38;4.13;;;;;;;-144.73;100.00;54374.84;5011111;28;20029;-72
2023/07/01 05:49:57;;;;;;;7.47;3.70;;;;;;;-144.73;100.00;54383.06;5027605;28;20052;-73
2023/07/01 05:52:23;;;;;;;8.38;4.60;;;;;;;-144.73;100.00;54342.03;5018883;28;20071;-73
2023/07/01 05:54:48;;;;;;;8.95;4.85;;;;;;;-144.73;100.00;54354.34;5011155;28;20121;-73
2023/07/01 05:57:14;;;;;;;10.10;3.90;;;;;;;-144.73;100.00;54370.75;5029488;28;20082;-74
2023/07/01 05:59:40;;;;;;;13.73;4.78;;;;;;;-144.73;100.00;54374.84;5011370;28;20038;-74
2023/07/01 06:02:06;;;;;;;9.80;4.85;;;;;;;-144.73;100.00;54366.66;5009805;28;20044;-74
2023/07/01 06:04:31;;;;;;;11.90;5.22;;;;;;;-144.73;100.00;54358.44;5014346;28;20018;-73
2023/07/01 06:06:56;;;;;;;9.98;4.40;;;;;;;-144.73;100.00;54368.69;5014093;28;20014;-73
2023/07/01 06:09:22;;;;;;;11.32;4.70;;;;;;;-144.73;100.00;54346.13;5011085;28;20029;-73
2023/07/01 06:11:47;;;;;;;8.07;4.75;;;;;;;-144.73;100.00;54366.66;5011761;28;20059;-73
2023/07/01 06:14:13;;;;;;;8.65;3.38;;;;;;;-144.73;100.00;54354.34;5005399;28;20025;-73
2023/07/01 06:16:38;;;;;;;12.65;5.20;;;;;;;-144.73;100.00;54391.28;5010256;28;20042;-73
2023/07/01 06:19:04;;;;;;;9.13;4.32;;;;;;;-144.73;100.00;54337.91;5020148;28;20100;-72
2023/07/01 06:21:29;;;;;;;11.82;5.13;;;;;;;-144.73;100.00;54333.81;5032388;28;20057;-73
2023/07/01 06:23:55;;;;;;;11.13;5.57;;;;;;;-144.73;100.00;54366.66;5011356;28;20052;-73
2023/07/01 06:26:22;;;;;;;8.10;3.85;;;;;;;-144.73;100.00;54366.66;5012935;28;20033;-72
2023/07/01 06:28:47;;;;;;;10.82;4.53;;;;;;;-144.73;100.00;54329.72;5021450;28;20077;-73
2023/07/01 06:31:12;;;;;;;10.82;3.67;;;;;;;-144.73;100.00;54399.50;5018944;28;20033;-74
2023/07/01 06:33:41;;;;;;;9.93;4.80;;;;;;;-144.73;100.00;54354.34;5016400;28;20040;-74
2023/07/01 06:36:07;;;;;;;13.20;4.72;;;;;;;-144.73;100.00;54370.75;5019846;28;20469;-74
2023/07/01 06:38:32;;;;;;;9.43;4.38;;;;;;;-144.73;100.00;54417.97;5005601;28;20105;-74
2023/07/01 06:40:58;;;;;;;15.40;4.57;;;;;;;-144.73;100.00;54337.91;5030128;28;20513;-75
2023/07/01 06:43:23;;;;;;;9.85;4.05;;;;;;;-144.73;100.00;54329.72;5009551;28;20053;-74
2023/07/01 06:45:49;;;;;;;18.23;5.30;;;;;;;-144.73;100.00;54325.59;5019332;28;20034;-75
2023/07/01 06:48:14;;;;;;;10.98;5.00;;;;;;;-144.73;100.00;54374.84;5021246;28;20037;-74
2023/07/01 06:50:40;;;;;;;8.93;4.28;;;;;;;-144.73;100.00;54354.34;5019619;28;20045;-75
2023/07/01 06:53:06;;;;;;;9.82;4.22;;;;;;;-144.73;100.00;54329.72;5013268;28;20071;-73
2023/07/01 06:55:31;;;;;;;9.38;5.45;;;;;;;-144.73;100.00;54378.97;5016075;28;20084;-74
2023/07/01 06:57:57;;;;;;;10.13;4.72;;;;;;;-144.73;100.00;54374.84;5016692;28;20104;-73
2023/07/01 07:00:22;;;;;;;10.50;4.25;;;;;;;-144.73;100.00;54358.44;5023831;28;20040;-74
2023/07/01 07:02:47;;;;;;;11.55;4.95;;;;;;;-144.73;100.00;54370.75;5029433;28;20051;-72
2023/07/01 07:05:13;;;;;;;8.77;3.33;;;;;;;-144.73;100.00;54387.19;5027130;28;20048;-71
2023/07/01 07:07:38;;;;;;;9.00;4.70;;;;;;;-144.73;100.00;54350.22;5022819;28;20041;-72
2023/07/01 07:10:04;;;;;;;7.90;4.15;;;;;;;-144.73;100.00;54360.50;5006593;28;20043;-71
2023/07/01 07:12:30;;;;;;;14.32;3.72;;;;;;;-144.73;100.00;54358.44;5022124;28;20036;-72
2023/07/01 07:14:55;;;;;;;8.75;3.70;;;;;;;-144.73;100.00;54391.28;5001058;28;20042;-72
2023/07/01 07:17:20;;;;;;;11.77;3.92;;;;;;;-144.73;100.00;54358.44;5003244;28;20029;-72
2023/07/01 07:19:46;;;;;;;12.95;4.30;;;;;;;-144.73;100.00;54358.44;5010359;28;20109;-73
2023/07/01 07:22:12;;;;;;;9.43;3.85;;;;;;;-144.73;100.00;54370.75;5019041;28;20387;-73
2023/07/01 07:24:38;;;;;;;10.63;4.32;;;;;;;-144.73;100.00;54364.59;5026052;28;20026;-73
2023/07/01 07:27:03;;;;;;;9.20;5.20;;;;;;;-144.73;100.00;54383.06;5033671;28;20033;-73
2023/07/01 07:29:33;;;;;;;9.70;4.03;;;;;;;-144.73;100.00;54391.28;5022244;28;20104;-73
2023/07/01 07:31:59;;;;;;;8.27;3.95;;;;;;;-144.73;100.00;54325.59;5030888;28;20102;-74
2023/07/01 07:34:25;;;;;;;8.23;4.43;;;;;;;-144.73;100.00;54387.19;5016247;28;20394;-74
2023/07/01 07:36:50;;;;;;;12.45;5.28;;;;;;;-144.73;100.00;54329.72;5016521;28;20018;-74
2023/07/01 07:39:16;;;;;;;8.10;4.65;;;;;;;-144.73;100.00;54391.28;5028634;28;20030;-74
2023/07/01 07:41:43;;;;;;;13.00;4.80;;;;;;;-144.73;100.00;54372.81;5017923;28;20072;-74
2023/07/01 07:44:08;;;;;;;9.82;4.63;;;;;;;-144.73;100.00;54370.75;5036326;28;20100;-74
2023/07/01 07:46:35;;;;;;;10.15;5.15;;;;;;;-144.73;100.00;54358.44;5009933;28;20045;-74
2023/07/01 07:49:01;;;;;;;11.25;4.50;;;;;;;-144.73;100.00;54395.38;5021503;28;20108;-74
2023/07/01 07:51:26;;;;;;;11.15;5.07;;;;;;;-144.73;100.00;54383.06;5016058;28;20068;-74
2023/07/01 07:53:52;;;;;;;9.20;5.63;;;;;;;-144.73;100.00;54395.38;5024722;28;20049;-74
2023/07/01 07:56:18;;;;;;;9.27;5.18;;;;;;;-144.73;100.00;54391.28;5012320;28;20094;-74
2023/07/01 07:58:45;;;;;;;9.70;4.25;;;;;;;-144.73;100.00;54370.75;5014315;28;20081;-74
2023/07/01 08:01:10;;;;;;;10.80;4.75;;;;;;;-144.73;100.00;54354.34;5038275;28;20037;-73
2023/07/01 08:03:36;;;;;;;13.80;5.30;;;;;;;-144.73;100.00;54389.22;5016285;28;20025;-73
2023/07/01 08:06:01;;;;;;;14.55;5.45;;;;;;;-144.73;100.00;54389.22;5019639;28;20033;-75
2023/07/01 08:08:26;;;;;;;8.38;5.07;;;;;;;-144.73;100.00;54393.34;5017642;28;20134;-73
2023/07/01 08:10:53;;;;;;;9.40;5.13;;;;;;;-144.73;100.00;54378.97;5023616;28;20108;-74
2023/07/01 08:13:19;;;;;;;10.63;4.45;;;;;;;-144.73;100.00;54387.19;5039129;28;20055;-73
2023/07/01 08:15:45;;;;;;;12.73;5.03;;;;;;;-144.73;100.00;54387.19;5007606;28;20038;-73
2023/07/01 08:18:11;;;;;;;15.20;5.50;;;;;;;-144.73;100.00;54378.97;5014658;28;20036;-72
2023/07/01 08:20:38;;;;;;;11.57;5.13;;;;;;;-144.73;100.00;54378.97;5012170;28;20041;-73
2023/07/01 08:23:04;;;;;;;11.45;5.57;;;;;;;-144.73;100.00;54391.28;5016203;28;20018;-74
2023/07/01 08:25:29;;;;;;;14.18;6.03;;;;;;;-144.73;100.00;54407.69;5018843;28;20040;-72
2023/07/01 08:27:54;;;;;;;11.60;5.82;;;;;;;-144.73;100.00;54415.91;5019402;28;20021;-73
2023/07/01 08:30:22;;;;;;;10.35;5.82;;;;;;;-144.73;100.00;54415.91;5015224;28;20025;-75
2023/07/01 08:32:48;;;;;;;16.60;6.70;;;;;;;-144.73;100.00;54426.16;5010569;28;20025;-75
2023/07/01 08:35:13;;;;;;;10.85;6.40;;;;;;;-144.73;100.00;54395.38;5028241;28;20065;-75
2023/07/01 08:37:39;;;;;;;20.23;6.00;;;;;;;-144.73;100.00;54378.97;5013937;28;20060;-73
2023/07/01 08:40:08;;;;;;;14.07;6.60;;;;;;;-144.73;100.00;54436.44;5017316;28;20036;-74
2023/07/01 08:42:50;;;;;;;13.68;6.65;;;;;;;-144.73;100.00;54407.69;5032359;28;20025;-74
2023/07/01 08:45:18;;;;;;;11.95;6.80;;;;;;;-144.73;100.00;54366.66;5017633;28;20044;-73
2023/07/01 08:47:44;;;;;;;15.55;7.15;;;;;;;-144.73;100.00;54372.81;5033235;28;20029;-74
2023/07/01 08:50:11;;;;;;;9.75;7.10;;;;;;;-144.73;100.00;54395.38;5018778;28;20520;-75
2023/07/01 08:52:46;;;;;;;14.68;8.18;;;;;;;-144.73;100.00;54342.03;5019263;28;20024;-74
2023/07/01 08:55:11;;;;;;;16.90;9.07;;;;;;;-144.73;100.00;54420.00;5014025;28;20133;-74
2023/07/01 08:57:41;;;;;;;15.40;7.72;;;;;;;-144.73;100.00;54395.38;5034010;28;20111;-73
2023/07/01 09:00:09;;;;;;;17.42;8.18;;;;;;;-144.73;100.00;54424.13;5015232;28;20041;-73
2023/07/01 09:02:36;;;;;;;16.40;8.27;;;;;;;-144.73;100.00;54374.84;5029846;28;20104;-74
2023/07/01 09:05:03;;;;;;;12.63;7.00;;;;;;;-144.73;100.00;54383.06;5030057;28;20083;-74
2023/07/01 09:07:29;;;;;;;17.20;8.80;;;;;;;-144.73;100.00;54387.19;5024456;28;20092;-73
2023/07/01 09:09:56;;;;;;;18.30;9.13;;;;;;;-144.73;100.00;54411.81;5034105;28;20025;-74
2023/07/01 09:12:26;;;;;;;23.30;12.68;;;;;;;-144.73;100.00;54395.38;5026739;28;20025;-74
2023/07/01 09:15:02;;;;;;;20.08;12.52;;;;;;;-144.73;100.00;54391.28;5019942;28;20502;-74
2023/07/01 09:17:46;;;;;;;17.88;11.60;;;;;;;-144.73;100.00;54393.34;5006902;28;20029;-73
2023/07/01 09:20:13;;;;;;;20.17;10.52;;;;;;;-144.73;100.00;54407.69;5007547;28;20582;-73
2023/07/01 09:22:41;;;;;;;19.58;10.02;;;;;;;-144.73;100.00;54422.06;5022887;28;20057;-74
2023/07/01 09:25:07;;;;;;;16.65;9.40;;;;;;;-144.73;100.00;54407.69;4993650;28;20136;-73
2023/07/01 09:27:46;;;;;;;24.13;10.65;;;;;;;-144.73;100.00;54366.66;5024225;28;20156;-73
2023/07/01 09:30:28;;;;;;;21.67;10.88;;;;;;;-144.73;100.00;54385.13;5001446;28;20033;-74
2023/07/01 09:33:10;;;;;;;;;;;;;;;-144.73;100.00;54411.81;5010430;28;20025;-74
2023/07/01 09:35:43;;;;;;;20.30;9.85;;;;;;;-144.73;100.00;54407.69;5016770;28;20041;-74
2023/07/01 09:38:08;;;;;;;20.15;9.30;;;;;;;-144.73;100.00;54420.00;5016959;28;20084;-74
2023/07/01 09:40:34;;;;;;;22.83;10.88;;;;;;;-144.73;100.00;54387.19;5033002;28;20029;-75
2023/07/01 09:42:59;;;;;;;21.40;11.35;;;;;;;-144.73;100.00;54407.69;5030590;28;20041;-73
2023/07/01 09:45:25;;;;;;;17.17;11.02;;;;;;;-144.73;100.00;54407.69;5019152;28;20121;-75
2023/07/01 09:47:54;;;;;;;16.98;10.23;;;;;;;-144.73;100.00;54407.69;5021278;28;20025;-74
2023/07/01 09:50:24;;;;;;;22.92;10.63;;;;;;;-144.73;100.00;54415.91;5008188;28;20038;-74
2023/07/01 09:52:53;;;;;;;19.08;11.73;;;;;;;-144.73;100.00;54407.69;5012885;28;20028;-74
2023/07/01 09:55:19;;;;;;;26.23;12.57;;;;;;;-144.73;100.00;54424.13;5004232;28;20090;-75
2023/07/01 09:57:48;;;;;;;19.40;12.80;;;;;;;-144.73;100.00;54383.06;5012252;28;20120;-75
2023/07/01 10:00:16;;;;;;;21.80;13.25;;;;;;;-144.73;100.00;54383.06;5012185;28;20038;-75
2023/07/01 10:02:47;;;;;;;25.55;13.70;;;;;;;-144.73;100.00;54395.38;5002785;28;20025;-74
2023/07/01 10:05:13;;;;;;;18.27;13.33;;;;;;;-144.73;100.00;54424.13;5016854;28;20026;-74
2023/07/01 10:07:44;;;;;;;21.63;12.45;;;;;;;-144.73;100.00;54391.28;4997399;28;20049;-74
2023/07/01 10:10:20;;;;;;;22.35;12.98;;;;;;;-144.73;100.00;54407.69;5023752;28;20057;-74
2023/07/01 10:12:47;;;;;;;25.83;14.40;;;;;;;-144.73;100.00;54378.97;5008708;28;20083;-74
2023/07/01 10:15:18;;;;;;;18.13;11.90;;;;;;;-144.73;100.00;54387.19;4996522;28;20057;-75
2023/07/01 10:17:48;;;;;;;25.42;12.90;;;;;;;-144.73;100.00;54411.81;5017468;28;20108;-74
2023/07/01 10:20:23;;;;;;;23.25;12.73;;;;;;;-144.73;100.00;54420.00;5020172;28;20033;-75
2023/07/01 10:22:53;;;;;;;18.40;12.80;;;;;;;-144.73;100.00;54407.69;5009421;28;20025;-74
2023/07/01 10:25:29;;;;;;;22.40;14.38;;;;;;;-144.73;100.00;54407.69;5018058;28;20033;-76
2023/07/01 10:27:59;;;;;;;18.52;12.57;;;;;;;-144.73;100.00;54415.91;5017459;28;20056;-74
2023/07/01 10:30:45;;;;;;;21.25;14.32;;;;;;;-144.73;100.00;54440.53;5017005;28;20058;-75
2023/07/01 10:33:30;;;;;;;25.10;12.65;;;;;;;-144.73;100.00;54424.13;5009020;28;20025;-75
2023/07/01 10:36:14;;;;;;;15.82;11.27;;;;;;;-144.73;100.00;54387.19;5012117;28;20038;-75
2023/07/01 10:38:40;;;;;;;20.65;12.65;;;;;;;-144.73;100.00;54397.44;5015205;28;20025;-75
2023/07/01 10:41:06;;;;;;;26.30;13.98;;;;;;;-144.73;100.00;54391.28;5019605;28;20030;-76
2023/07/01 10:43:40;;;;;;;15.23;10.73;;;;;;;-144.73;100.00;54387.19;5028180;28;20013;-74
2023/07/01 10:46:07;;;;;;;28.80;12.38;;;;;;;-144.73;100.00;54432.31;5019066;28;20049;-75
2023/07/01 10:48:33;;;;;;;20.00;11.27;;;;;;;-144.73;100.00;54415.91;5016101;28;20022;-74
2023/07/01 10:51:07;;;;;;;19.88;13.07;;;;;;;-144.73;100.00;54411.81;5012903;28;20073;-74
2023/07/01 10:53:59;;;;;;;18.60;12.90;;;;;;;-144.73;100.00;54415.91;5012571;28;20044;-75
2023/07/01 10:56:35;;;;;;;;;;;;;;;-144.73;100.00;54440.53;5012533;28;20041;-74
2023/07/01 10:59:22;;;;;;;23.48;14.27;;;;;;;-144.73;100.00;54430.28;5012203;28;19917;-74
2023/07/01 11:01:56;;;;;;;18.58;12.70;;;;;;;-144.73;100.00;54383.06;5014973;28;20106;-78
2023/07/01 11:04:22;;;;;;;18.75;12.68;;;;;;;-144.73;100.00;54362.53;5017654;28;20029;-79
2023/07/01 11:06:53;;;;;;;17.17;12.68;;;;;;;-144.73;100.00;54424.13;5020764;28;20036;-79
2023/07/01 11:09:35;;;;;;;32.70;16.83;;;;;;;-144.73;100.00;54378.97;5021510;28;20044;-79
2023/07/01 11:12:02;;;;;;;;;;;;;;;-144.73;100.00;54411.81;5024069;28;20037;-79